createdAt,value
2019-05-23T00:01:20.165Z,100453.56
2019-05-23T00:04:58.194Z,100454.92
2019-05-23T00:08:23.560Z,100445.89
2019-05-23T00:11:29.603Z,100451.84
2019-05-23T00:14:56.762Z,100444.31
2019-05-23T00:18:01.463Z,100443.64
2019-05-23T00:21:05.009Z,100447.27
2019-05-23T00:24:08.426Z,100440.34
2019-05-23T00:27:12.087Z,100437.27
2019-05-23T00:30:25.243Z,100441.22
2019-05-23T00:33:29.759Z,100436.09
2019-05-23T00:36:34.918Z,100437.40
2019-05-23T00:39:39.827Z,100440.02
2019-05-23T00:42:44.587Z,100446.13
2019-05-23T00:45:48.208Z,100442.11
2019-05-23T00:48:51.932Z,100444.70
2019-05-23T00:51:55.884Z,100445.20
2019-05-23T00:54:59.124Z,100448.94
2019-05-23T00:58:02.264Z,100442.68
2019-05-23T01:01:06.284Z,100442.55
2019-05-23T01:04:10.251Z,100441.38
2019-05-23T01:07:16.135Z,100437.03
2019-05-23T01:10:20.058Z,100436.94
2019-05-23T01:13:24.021Z,100438.00
2019-05-23T01:16:29.521Z,100442.22
2019-05-23T01:19:33.607Z,100435.14
2019-05-23T01:22:36.686Z,100432.95
2019-05-23T01:25:40.710Z,100437.69
2019-05-23T01:28:44.616Z,100436.25
2019-05-23T01:31:51.715Z,100432.36
2019-05-23T01:34:56.342Z,100432.66
2019-05-23T01:38:04.157Z,100431.48
2019-05-23T01:41:06.395Z,100425.09
2019-05-23T01:44:11.409Z,100427.65
2019-05-23T01:47:15.072Z,100427.23
2019-05-23T01:50:24.562Z,100423.87
2019-05-23T01:53:28.885Z,100427.55
2019-05-23T01:56:32.208Z,100426.87
2019-05-23T01:59:35.853Z,100426.75
2019-05-23T02:02:39.211Z,100425.23
2019-05-23T02:05:42.645Z,100421.56
2019-05-23T02:08:45.886Z,100421.77
2019-05-23T02:11:50.069Z,100418.48
2019-05-23T02:14:54.647Z,100414.67
2019-05-23T02:17:57.684Z,100418.98
2019-05-23T02:21:00.984Z,100411.92
2019-05-23T02:24:06.405Z,100412.94
2019-05-23T02:27:11.339Z,100415.14
2019-05-23T02:30:33.227Z,100407.82
2019-05-23T02:33:25.092Z,100406.28
2019-05-23T02:36:31.931Z,100402.89
2019-05-23T02:39:48.997Z,100394.53
2019-05-23T02:42:57.150Z,100401.36
2019-05-23T02:46:06.644Z,100404.81
2019-05-23T02:49:11.004Z,100404.09
2019-05-23T02:52:53.524Z,100404.16
2019-05-23T02:56:02.761Z,100399.22
2019-05-23T02:59:45.704Z,100399.62
2019-05-23T03:02:53.892Z,100396.11
2019-05-23T03:05:59.721Z,100400.66
2019-05-23T03:09:03.910Z,100397.47
2019-05-23T03:12:10.691Z,100393.03
2019-05-23T03:15:16.452Z,100390.43
2019-05-23T03:18:21.435Z,100384.14
2019-05-23T03:21:26.600Z,100384.06
2019-05-23T03:24:30.700Z,100388.05
2019-05-23T03:27:42.471Z,100379.08
2019-05-23T03:30:48.804Z,100383.77
2019-05-23T03:33:52.561Z,100377.84
2019-05-23T03:36:56.329Z,100371.20
2019-05-23T03:39:59.568Z,100371.88
2019-05-23T03:43:04.491Z,100371.20
2019-05-23T03:46:10.577Z,100372.07
2019-05-23T03:49:15.666Z,100371.59
2019-05-23T03:52:21.187Z,100372.64
2019-05-23T03:55:24.990Z,100369.84
2019-05-23T03:58:29.465Z,100359.40
2019-05-23T04:01:46.870Z,100365.70
2019-05-23T04:04:40.000Z,100363.21
2019-05-23T04:07:44.112Z,100364.42
2019-05-23T04:10:51.372Z,100362.45
2019-05-23T04:13:52.619Z,100368.77
2019-05-23T04:16:56.344Z,100370.03
2019-05-23T04:19:59.878Z,100364.27
2019-05-23T04:23:03.527Z,100371.63
2019-05-23T04:26:06.778Z,100366.80
2019-05-23T04:29:10.728Z,100364.82
2019-05-23T04:32:15.796Z,100369.90
2019-05-23T04:35:19.441Z,100365.50
2019-05-23T04:38:22.832Z,100362.98
2019-05-23T04:41:25.905Z,100366.73
2019-05-23T04:44:29.900Z,100360.77
2019-05-23T04:47:33.814Z,100361.82
2019-05-23T04:50:37.216Z,100365.20
2019-05-23T04:53:40.582Z,100365.30
2019-05-23T04:56:43.507Z,100365.93
2019-05-23T04:59:47.484Z,100369.16
2019-05-23T05:02:51.399Z,100371.30
2019-05-23T05:05:56.218Z,100364.18
2019-05-23T05:08:59.729Z,100369.84
2019-05-23T05:12:03.055Z,100364.94
2019-05-23T05:15:06.500Z,100356.22
2019-05-23T05:18:11.159Z,100368.19
2019-05-23T05:21:14.740Z,100368.06
2019-05-23T05:24:18.290Z,100366.41
2019-05-23T05:27:22.116Z,100363.86
2019-05-23T05:30:26.379Z,100358.70
2019-05-23T05:33:29.591Z,100359.02
2019-05-23T05:36:33.069Z,100367.02
2019-05-23T05:39:36.893Z,100372.73
2019-05-23T05:42:43.162Z,100373.08
2019-05-23T05:45:46.856Z,100380.44
2019-05-23T05:48:49.823Z,100371.89
2019-05-23T05:51:53.332Z,100379.34
2019-05-23T05:54:56.830Z,100377.88
2019-05-23T05:58:00.390Z,100379.56
2019-05-23T06:01:08.158Z,100377.07
2019-05-23T06:04:11.539Z,100380.73
2019-05-23T06:07:24.193Z,100383.34
2019-05-23T06:10:28.228Z,100391.64
2019-05-23T06:13:31.757Z,100381.92
2019-05-23T06:16:35.303Z,100380.63
2019-05-23T06:19:38.804Z,100386.23
2019-05-23T06:22:43.438Z,100386.52
2019-05-23T06:25:46.696Z,100388.12
2019-05-23T06:28:50.405Z,100384.42
2019-05-23T06:31:55.624Z,100381.31
2019-05-23T06:34:59.184Z,100384.25
2019-05-23T06:38:02.613Z,100385.86
2019-05-23T06:41:07.229Z,100383.13
2019-05-23T06:44:12.377Z,100386.88
2019-05-23T06:47:15.752Z,100384.52
2019-05-23T06:50:21.061Z,100388.79
2019-05-23T06:53:24.833Z,100388.95
2019-05-23T06:56:28.959Z,100392.05
2019-05-23T06:59:33.072Z,100388.48
2019-05-23T07:02:36.850Z,100387.65
2019-05-23T07:05:40.900Z,100389.09
2019-05-23T07:08:44.328Z,100389.01
2019-05-23T07:11:47.950Z,100390.41
2019-05-23T07:14:50.895Z,100390.17
2019-05-23T07:17:54.815Z,100384.77
2019-05-23T07:20:58.018Z,100392.34
2019-05-23T07:24:01.141Z,100390.05
2019-05-23T07:27:04.174Z,100394.17
2019-05-23T07:30:14.157Z,100394.09
2019-05-23T07:33:17.660Z,100399.04
2019-05-23T07:36:21.242Z,100400.38
2019-05-23T07:39:24.205Z,100401.12
2019-05-23T07:42:27.598Z,100395.78
2019-05-23T07:45:39.852Z,100390.03
2019-05-23T07:48:42.827Z,100392.42
2019-05-23T07:51:46.264Z,100397.16
2019-05-23T07:55:00.812Z,100399.83
2019-05-23T07:58:05.617Z,100393.57
2019-05-23T08:01:10.444Z,100392.92
2019-05-23T08:04:21.424Z,100389.13
2019-05-23T08:07:20.522Z,100386.27
2019-05-23T08:10:32.973Z,100392.23
2019-05-23T08:13:29.784Z,100391.27
2019-05-23T08:16:33.552Z,100391.16
2019-05-23T08:19:49.122Z,100387.36
2019-05-23T08:22:42.081Z,100390.13
2019-05-23T08:25:45.704Z,100388.33
2019-05-23T08:29:21.742Z,100394.51
2019-05-23T08:31:54.436Z,100388.64
2019-05-23T08:34:57.939Z,100392.59
2019-05-23T08:38:01.157Z,100394.48
2019-05-23T08:41:05.544Z,100393.86
2019-05-23T08:44:11.580Z,100392.97
2019-05-23T08:47:16.787Z,100400.39
2019-05-23T08:50:21.129Z,100386.73
2019-05-23T08:53:25.827Z,100387.58
2019-05-23T08:56:28.827Z,100395.14
2019-05-23T08:59:32.525Z,100394.80
2019-05-23T09:02:36.702Z,100392.38
2019-05-23T09:05:41.840Z,100384.77
2019-05-23T09:08:46.038Z,100384.77
2019-05-23T09:11:50.143Z,100384.00
2019-05-23T09:14:53.565Z,100379.71
2019-05-23T09:17:57.086Z,100374.73
2019-05-23T09:21:00.750Z,100374.69
2019-05-23T09:24:04.174Z,100371.28
2019-05-23T09:27:07.614Z,100369.69
2019-05-23T09:30:12.951Z,100368.64
2019-05-23T09:33:16.166Z,100371.18
2019-05-23T09:36:19.408Z,100370.08
2019-05-23T09:39:25.519Z,100370.88
2019-05-23T09:42:28.657Z,100374.23
2019-05-23T09:45:32.120Z,100366.88
2019-05-23T09:48:36.003Z,100365.77
2019-05-23T09:51:39.024Z,100369.64
2019-05-23T09:54:41.946Z,100360.09
2019-05-23T09:57:45.562Z,100368.19
2019-05-23T10:00:48.787Z,100368.19
2019-05-23T10:03:52.116Z,100358.47
2019-05-23T10:06:55.012Z,100363.36
2019-05-23T10:09:57.936Z,100350.48
2019-05-23T10:13:00.855Z,100358.24
2019-05-23T10:16:07.555Z,100355.95
2019-05-23T10:19:10.725Z,100342.69
2019-05-23T10:22:13.908Z,100348.56
2019-05-23T10:25:17.105Z,100341.34
2019-05-23T10:28:20.238Z,100344.20
2019-05-23T10:31:23.791Z,100345.52
2019-05-23T10:34:26.846Z,100345.63
2019-05-23T10:37:29.848Z,100339.06
2019-05-23T10:40:33.182Z,100333.28
2019-05-23T10:43:36.410Z,100333.14
2019-05-23T10:46:40.141Z,100335.95
2019-05-23T10:49:44.952Z,100328.58
2019-05-23T10:52:48.302Z,100318.58
2019-05-23T10:55:51.255Z,100317.99
2019-05-23T10:58:54.661Z,100314.16
2019-05-23T11:01:59.395Z,100320.26
2019-05-23T11:05:12.189Z,100314.62
2019-05-23T11:08:09.276Z,100305.69
2019-05-23T11:11:14.659Z,100303.66
2019-05-23T11:14:18.308Z,100308.56
2019-05-23T11:17:22.516Z,100294.55
2019-05-23T11:20:26.770Z,100295.28
2019-05-23T11:23:37.461Z,100290.10
2019-05-23T11:26:40.954Z,100285.38
2019-05-23T11:29:44.211Z,100291.98
2019-05-23T11:32:48.861Z,100292.75
2019-05-23T11:35:52.066Z,100291.96
2019-05-23T11:38:55.419Z,100290.82
2019-05-23T11:41:58.859Z,100283.19
2019-05-23T11:45:02.115Z,100277.25
2019-05-23T11:48:05.329Z,100277.84
2019-05-23T11:51:10.219Z,100270.81
2019-05-23T11:54:13.948Z,100277.34
2019-05-23T11:57:17.089Z,100278.95
2019-05-23T12:01:30.577Z,100274.86
2019-05-23T12:04:42.090Z,100274.52
2019-05-23T12:07:45.704Z,100261.54
2019-05-23T12:10:48.978Z,100262.53
2019-05-23T12:13:52.351Z,100258.59
2019-05-23T12:16:57.101Z,100265.61
2019-05-23T12:20:00.354Z,100250.09
2019-05-23T12:23:10.477Z,100255.88
2019-05-23T12:26:08.527Z,100256.69
2019-05-23T12:29:11.834Z,100246.30
2019-05-23T12:32:15.273Z,100244.54
2019-05-23T12:35:18.316Z,100246.40
2019-05-23T12:38:21.374Z,100246.30
2019-05-23T12:41:24.617Z,100243.96
2019-05-23T12:44:27.717Z,100241.05
2019-05-23T12:47:51.613Z,100243.87
2019-05-23T12:50:55.780Z,100236.26
2019-05-23T12:53:58.764Z,100234.19
2019-05-23T12:57:01.895Z,100222.92
2019-05-23T13:00:07.390Z,100228.53
2019-05-23T13:03:12.123Z,100224.77
2019-05-23T13:06:15.604Z,100215.73
2019-05-23T13:09:18.525Z,100220.48
2019-05-23T13:12:21.968Z,100223.04
2019-05-23T13:15:25.444Z,100218.06
2019-05-23T13:18:28.491Z,100210.66
2019-05-23T13:21:31.504Z,100217.36
2019-05-23T13:24:51.442Z,100209.27
2019-05-23T13:27:40.141Z,100207.72
2019-05-23T13:30:43.574Z,100200.59
2019-05-23T13:33:46.900Z,100205.06
2019-05-23T13:36:50.552Z,100206.41
2019-05-23T13:39:53.501Z,100199.75
2019-05-23T13:42:56.732Z,100203.00
2019-05-23T13:46:01.576Z,100185.95
2019-05-23T13:49:05.672Z,100191.53
2019-05-23T13:52:09.247Z,100195.83
2019-05-23T13:55:12.608Z,100199.05
2019-05-23T13:58:17.026Z,100184.96
2019-05-23T14:01:20.660Z,100183.22
2019-05-23T14:04:23.571Z,100176.70
2019-05-23T14:07:27.296Z,100177.41
2019-05-23T14:10:30.429Z,100175.28
2019-05-23T14:13:34.845Z,100179.94
2019-05-23T14:17:09.657Z,100178.86
2019-05-23T14:20:13.910Z,100178.03
2019-05-23T14:23:28.312Z,100173.67
2019-05-23T14:26:36.910Z,100172.26
2019-05-23T14:29:40.643Z,100160.11
2019-05-23T14:32:49.609Z,100167.02
2019-05-23T14:35:53.805Z,100170.08
2019-05-23T14:38:59.446Z,100161.25
2019-05-23T14:42:08.561Z,100161.12
2019-05-23T14:45:29.426Z,100161.27
2019-05-23T14:49:01.635Z,100165.45
2019-05-23T14:52:22.079Z,100156.26
2019-05-23T14:55:25.292Z,100152.11
2019-05-23T14:58:29.400Z,100151.45
2019-05-23T15:01:33.857Z,100160.78
2019-05-23T15:04:37.169Z,100156.50
2019-05-23T15:07:40.475Z,100154.86
2019-05-23T15:10:43.973Z,100146.63
2019-05-23T15:13:46.979Z,100148.98
2019-05-23T15:16:49.912Z,100143.41
2019-05-23T15:19:53.788Z,100139.50
2019-05-23T15:22:59.973Z,100141.80
2019-05-23T15:26:19.656Z,100135.98
2019-05-23T15:29:08.283Z,100136.44
2019-05-23T15:32:11.312Z,100132.41
2019-05-23T15:35:14.706Z,100129.13
2019-05-23T15:38:17.725Z,100119.86
2019-05-23T15:41:20.782Z,100125.17
2019-05-23T15:44:28.455Z,100126.98
2019-05-23T15:47:32.392Z,100126.97
2019-05-23T15:50:43.927Z,100121.67
2019-05-23T15:54:21.623Z,100121.80
2019-05-23T15:57:39.772Z,100113.27
2019-05-23T16:01:02.540Z,100125.61
2019-05-23T16:04:11.953Z,100119.27
2019-05-23T16:07:15.362Z,100118.42
2019-05-23T16:10:19.417Z,100110.95
2019-05-23T16:13:22.740Z,100120.90
2019-05-23T16:16:26.870Z,100114.39
2019-05-23T16:19:29.796Z,100115.66
2019-05-23T16:22:33.684Z,100113.98
2019-05-23T16:25:37.033Z,100119.33
2019-05-23T16:28:40.356Z,100115.10
2019-05-23T16:31:43.964Z,100107.98
2019-05-23T16:34:47.000Z,100108.47
2019-05-23T16:37:50.189Z,100109.91
2019-05-23T16:40:53.118Z,100112.48
2019-05-23T16:43:56.161Z,100109.09
2019-05-23T16:46:59.061Z,100107.91
2019-05-23T16:50:02.021Z,100104.52
2019-05-23T16:53:05.941Z,100107.11
2019-05-23T16:56:14.590Z,100100.29
2019-05-23T16:59:24.221Z,100099.20
2019-05-23T17:02:55.922Z,100111.70
2019-05-23T17:06:07.045Z,100103.33
2019-05-23T17:09:26.439Z,100106.48
2019-05-23T17:12:49.577Z,100104.41
2019-05-23T17:16:12.127Z,100106.86
2019-05-23T17:19:28.857Z,100110.53
2019-05-23T17:22:50.537Z,100107.34
2019-05-23T17:26:08.844Z,100104.59
2019-05-23T17:29:36.987Z,100105.45
2019-05-23T17:32:41.482Z,100097.02
2019-05-23T17:35:44.524Z,100095.36
2019-05-23T17:38:48.000Z,100093.41
2019-05-23T17:41:52.084Z,100091.71
2019-05-23T17:44:55.344Z,100084.34
2019-05-23T17:48:00.093Z,100086.63
2019-05-23T17:51:03.828Z,100087.11
2019-05-23T17:54:07.161Z,100087.25
2019-05-23T17:57:10.956Z,100083.04
2019-05-23T18:00:17.174Z,100075.94
2019-05-23T18:03:20.508Z,100083.83
2019-05-23T18:06:24.079Z,100080.41
2019-05-23T18:09:27.697Z,100071.96
2019-05-23T18:12:31.556Z,100076.61
2019-05-23T18:15:34.754Z,100077.89
2019-05-23T18:18:38.526Z,100080.70
2019-05-23T18:21:42.907Z,100073.80
2019-05-23T18:24:46.958Z,100076.88
2019-05-23T18:27:50.252Z,100074.09
2019-05-23T18:30:59.129Z,100072.40
2019-05-23T18:34:04.599Z,100070.45
2019-05-23T18:37:08.933Z,100066.23
2019-05-23T18:40:12.451Z,100067.39
2019-05-23T18:43:16.441Z,100072.77
2019-05-23T18:46:24.084Z,100079.44
2019-05-23T18:49:27.793Z,100073.17
2019-05-23T18:52:31.165Z,100073.11
2019-05-23T18:55:34.944Z,100072.22
2019-05-23T18:58:38.404Z,100071.95
2019-05-23T19:01:42.220Z,100071.34
2019-05-23T19:04:45.663Z,100074.39
2019-05-23T19:07:48.703Z,100076.77
2019-05-23T19:10:52.643Z,100072.87
2019-05-23T19:13:55.979Z,100078.91
2019-05-23T19:16:59.462Z,100085.42
2019-05-23T19:20:02.715Z,100087.77
2019-05-23T19:23:06.978Z,100085.27
2019-05-23T19:26:11.179Z,100090.25
2019-05-23T19:29:14.258Z,100085.55
2019-05-23T19:32:17.892Z,100090.45
2019-05-23T19:35:21.449Z,100095.07
2019-05-23T19:38:25.465Z,100090.72
2019-05-23T19:41:37.686Z,100090.50
2019-05-23T19:44:35.245Z,100097.55
2019-05-23T19:47:38.769Z,100094.53
2019-05-23T19:50:43.316Z,100096.67
2019-05-23T19:53:47.748Z,100100.83
2019-05-23T19:56:51.058Z,100108.69
2019-05-23T19:59:54.167Z,100100.61
2019-05-23T20:02:59.171Z,100116.00
2019-05-23T20:06:02.621Z,100119.00
2019-05-23T20:09:10.028Z,100126.67
2019-05-23T20:12:14.301Z,100132.33
2019-05-23T20:15:18.544Z,100139.59
2019-05-23T20:18:22.160Z,100143.66
2019-05-23T20:21:25.563Z,100145.02
2019-05-23T20:24:28.837Z,100145.95
2019-05-23T20:27:31.866Z,100145.02
2019-05-23T20:31:00.600Z,100144.39
2019-05-23T20:34:06.969Z,100144.12
2019-05-23T20:37:09.492Z,100144.95
2019-05-23T20:40:13.118Z,100139.33
2019-05-23T20:43:16.222Z,100139.84
2019-05-23T20:46:19.255Z,100144.75
2019-05-23T20:49:22.881Z,100146.38
2019-05-23T20:52:26.183Z,100139.69
2019-05-23T20:55:29.987Z,100140.33
2019-05-23T20:58:32.915Z,100139.17
2019-05-23T21:01:40.020Z,100146.66
2019-05-23T21:04:43.385Z,100144.99
2019-05-23T21:07:46.613Z,100145.67
2019-05-23T21:10:50.921Z,100134.41
2019-05-23T21:13:54.227Z,100129.05
2019-05-23T21:16:57.749Z,100134.44
2019-05-23T21:20:00.668Z,100129.98
2019-05-23T21:23:03.722Z,100127.53
2019-05-23T21:26:07.771Z,100133.34
2019-05-23T21:29:11.289Z,100133.01
2019-05-23T21:32:14.901Z,100130.08
2019-05-23T21:35:18.441Z,100133.94
2019-05-23T21:38:22.460Z,100136.30
2019-05-23T21:41:26.472Z,100130.36
2019-05-23T21:44:29.803Z,100129.02
2019-05-23T21:47:33.097Z,100124.78
2019-05-23T21:50:36.383Z,100126.23
2019-05-23T21:53:39.970Z,100121.23
2019-05-23T21:56:43.676Z,100122.45
2019-05-23T21:59:46.796Z,100122.20
2019-05-23T22:02:50.237Z,100121.20
2019-05-23T22:05:53.194Z,100127.48
2019-05-23T22:08:56.121Z,100125.80
2019-05-23T22:12:00.377Z,100123.53
2019-05-23T22:15:04.279Z,100112.53
2019-05-23T22:18:07.802Z,100112.97
2019-05-23T22:21:11.486Z,100113.25
2019-05-23T22:24:15.146Z,100109.59
2019-05-23T22:27:19.266Z,100109.49
2019-05-23T22:30:22.294Z,100116.48
2019-05-23T22:33:27.872Z,100112.56
2019-05-23T22:36:30.780Z,100111.53
2019-05-23T22:39:34.315Z,100118.75
2019-05-23T22:42:37.658Z,100116.86
2019-05-23T22:45:41.129Z,100118.63
2019-05-23T22:48:44.407Z,100119.89
2019-05-23T22:51:48.540Z,100118.89
2019-05-23T22:54:51.525Z,100122.37
2019-05-23T22:57:54.811Z,100122.05
2019-05-23T23:00:58.593Z,100118.55
2019-05-23T23:04:02.761Z,100117.56
2019-05-23T23:07:06.649Z,100112.84
2019-05-23T23:10:09.788Z,100111.58
2019-05-23T23:13:13.627Z,100114.97
2019-05-23T23:16:17.118Z,100112.51
2019-05-23T23:19:20.944Z,100105.37
2019-05-23T23:22:24.017Z,100107.70
2019-05-23T23:25:27.057Z,100096.91
2019-05-23T23:28:30.065Z,100098.67
2019-05-23T23:31:33.784Z,100098.33
2019-05-23T23:34:37.705Z,100101.42
2019-05-23T23:37:40.714Z,100092.50
2019-05-23T23:40:44.265Z,100093.69
2019-05-23T23:43:58.666Z,100084.89
2019-05-23T23:47:10.965Z,100090.90
2019-05-23T23:50:32.432Z,100085.38
2019-05-23T23:53:54.199Z,100078.95
2019-05-23T23:57:16.116Z,100078.09
